KLFK/LFK METAR and TAF weather

Enter ICAO airport designator
Station Type Date Time Source
KLFK METAR 2019/07/18 11:23 UTC NOAA

KLFK 181123Z AUTO 16005KT 1SM BR OVC002 24/24 A3005 RMK AO2 T02390239


Station Type Date Time Source
KLFK Decoded METAR 2019/07/18 11:23 UTC NOAA

LUFKIN ANGELINA COUNTY AIRPORT , TX, United States (KLFK) 31-14N 94-45W 88M
Jul 18, 2019 - 07:23 AM EDT / 2019.07.18 1123 UTC
Wind: from the SSE (160 degrees) at 6 MPH (5 KT):0
Visibility: 1 mile(s):0
Sky conditions: overcast
Weather: mist
Temperature: 75.0 F (23.9 C)
Dew Point: 75.0 F (23.9 C)
Relative Humidity: 100%
Pressure (altimeter): 30.05 in. Hg (1017 hPa)
ob: KLFK 181123Z AUTO 16005KT 1SM BR OVC002 24/24 A3005 RMK AO2 T02390239
cycle: 11

Station Type Date Time Source
KLFK TAF 2019/07/18 12:22 UTC NOAA

TAF KLFK 181120Z 1812/1912 14003KT 5SM BR BKN010
TEMPO 1812/1814 3/4SM BR BKN002
FM181400 17005KT P6SM BKN020
TEMPO 1814/1816 SCT030
FM181600 20007KT P6SM SCT035 SCT250
FM190000 16006KT P6SM SKC
FM190900 14003KT 3SM BR BKN005

Example: see airport list